Huntington, NY (11743)

1:43 PM EDT on August 26, 2016 (GMT -0400)
Huntington, New York | | Change Station

Elev 164 ft 40.87 °N, 73.40 °W | Updated 13 minutes ago

Partly Cloudy
Partly Cloudy
90.7 °F
Feels Like 101 °F
N
0.0
Wind Variable Wind from North
Gusts 3.0 mph

Today
High -- | Low -- °F
--% Chance of Precip.
Yesterday
High -- | Low -- °F
Precip. -- in
Pressure 29.97 in
Visibility 10.0 miles
Clouds Few 4000 ft
Heat Index 101 °F
Dew Point 75 °F
Humidity 60%
Rainfall 0.00 in
Snow Depth Not available.
6:15 AM 7:34 PM
Waning Crescent, 32% visible
METAR KFRG 261653Z 33009G16KT 10SM FEW040 32/21 A2997 RMK AO2 SLP148 T03220211
Pressure 29.97 in
Visibility 10.0 miles
Clouds Few 4000 ft
Heat Index 101 °F
Dew Point 75 °F
Humidity 60%
Rainfall 0.00 in
Snow Depth Not available.
6:15 AM 7:34 PM
Waning Crescent, 32% visible
METAR KFRG 261653Z 33009G16KT 10SM FEW040 32/21 A2997 RMK AO2 SLP148 T03220211

10-Day Weather Forecast

Almanac

Astronomy

Aug. 26, 2016 Rise Set
Actual Time
Civil Twilight
Nautical Twilight
Astronomical Twilight
Moon
Length of Visible Light
Length of Day
Tomorrow will be .
, % of the Moon is Illuminated

Today's Extremes

State Highs State Lows

Community

WunderPhotos

Upload Photos

1,935,152 photos uploaded!

WunderBlog® & News

Nearby

Air Quality

  Air Quality AQ Index Pollutant
Not available.

Snow Depth

Station Depth Elevation

Earthquake Activity

City Distance Mag. Time & Date
Minimum magnitude displayed is 2.5.

Coastal Water Temperatures

Place Temperature

Stations

Nearby Weather Stations

Station Location Temp. Windchill Dew Point Humidity Wind Precip. Elev Updated Type
                   

Watches & Warnings

There are currently no watches in effect.